createdAt,value
2018-12-12T00:00:04.634Z,18.25
2018-12-12T00:02:31.235Z,13.18
2018-12-12T00:04:57.646Z,19.20
2018-12-12T00:07:24.075Z,18.02
2018-12-12T00:09:50.454Z,17.15
2018-12-12T00:12:16.877Z,20.40
2018-12-12T00:14:43.267Z,27.42
2018-12-12T00:17:09.670Z,18.92
2018-12-12T00:19:36.075Z,18.52
2018-12-12T00:22:03.519Z,19.85
2018-12-12T00:24:29.886Z,19.95
2018-12-12T00:26:56.277Z,21.12
2018-12-12T00:29:22.750Z,23.40
2018-12-12T00:31:49.155Z,23.18
2018-12-12T00:34:15.538Z,17.40
2018-12-12T00:36:42.050Z,17.17
2018-12-12T00:39:08.499Z,23.67
2018-12-12T00:41:34.863Z,19.77
2018-12-12T00:44:01.377Z,21.70
2018-12-12T00:46:27.786Z,22.20
2018-12-12T00:48:54.342Z,19.52
2018-12-12T00:51:20.743Z,18.07
2018-12-12T00:53:47.164Z,14.70
2018-12-12T00:56:13.571Z,18.90
2018-12-12T00:58:39.997Z,19.02
2018-12-12T01:01:06.409Z,19.30
2018-12-12T01:03:32.864Z,20.70
2018-12-12T01:05:59.271Z,17.98
2018-12-12T01:08:25.653Z,20.60
2018-12-12T01:10:54.105Z,24.45
2018-12-12T01:13:23.433Z,24.67
2018-12-12T01:15:49.855Z,23.32
2018-12-12T01:18:16.235Z,19.42
2018-12-12T01:20:42.612Z,22.93
2018-12-12T01:23:09.041Z,21.48
2018-12-12T01:25:35.547Z,26.93
2018-12-12T01:28:01.989Z,21.40
2018-12-12T01:30:28.500Z,22.00
2018-12-12T01:32:54.985Z,21.62
2018-12-12T01:35:21.387Z,22.80
2018-12-12T01:37:47.758Z,24.35
2018-12-12T01:40:14.169Z,18.77
2018-12-12T01:42:40.553Z,23.42
2018-12-12T01:45:07.044Z,20.62
2018-12-12T01:47:33.591Z,24.40
2018-12-12T01:49:59.991Z,24.50
2018-12-12T01:52:26.472Z,29.00
2018-12-12T01:54:52.856Z,21.07
2018-12-12T01:57:19.215Z,17.87
2018-12-12T01:59:45.707Z,19.62
2018-12-12T02:02:12.191Z,23.75
2018-12-12T02:04:38.576Z,15.90
2018-12-12T02:07:04.966Z,23.62
2018-12-12T02:09:31.355Z,24.37
2018-12-12T02:11:57.716Z,20.97
2018-12-12T02:14:24.111Z,20.37
2018-12-12T02:16:50.474Z,23.95
2018-12-12T02:19:16.817Z,24.75
2018-12-12T02:21:43.217Z,23.67
2018-12-12T02:24:09.575Z,19.62
2018-12-12T02:26:35.964Z,27.13
2018-12-12T02:29:02.362Z,22.48
2018-12-12T02:31:28.868Z,29.52
2018-12-12T02:33:55.254Z,24.90
2018-12-12T02:36:21.663Z,25.32
2018-12-12T02:38:48.031Z,27.27
2018-12-12T02:41:14.420Z,23.95
2018-12-12T02:43:40.779Z,21.50
2018-12-12T02:46:07.184Z,25.00
2018-12-12T02:48:33.568Z,27.73
2018-12-12T02:50:59.955Z,26.48
2018-12-12T02:53:26.322Z,21.60
2018-12-12T02:55:52.692Z,21.73
2018-12-12T02:58:19.162Z,22.60
2018-12-12T03:00:45.575Z,21.55
2018-12-12T03:03:11.943Z,24.25
2018-12-12T03:05:38.371Z,20.72
2018-12-12T03:08:04.760Z,24.40
2018-12-12T03:10:31.129Z,18.77
2018-12-12T03:12:57.538Z,22.32
2018-12-12T03:15:23.899Z,22.05
2018-12-12T03:17:50.277Z,26.50
2018-12-12T03:20:16.643Z,20.27
2018-12-12T03:22:43.027Z,23.20
2018-12-12T03:25:09.395Z,27.10
2018-12-12T03:27:35.772Z,20.65
2018-12-12T03:30:02.910Z,28.52
2018-12-12T03:32:29.406Z,25.65
2018-12-12T03:34:55.787Z,25.12
2018-12-12T03:37:22.304Z,18.65
2018-12-12T03:39:48.770Z,22.48
2018-12-12T03:42:15.156Z,24.72
2018-12-12T03:44:41.594Z,28.17
2018-12-12T03:47:07.984Z,31.17
2018-12-12T03:49:34.363Z,23.30
2018-12-12T03:52:00.765Z,23.90
2018-12-12T03:54:27.142Z,22.48
2018-12-12T03:56:53.544Z,29.98
2018-12-12T03:59:19.938Z,27.62
2018-12-12T04:01:46.324Z,27.40
2018-12-12T04:04:12.683Z,23.30
2018-12-12T04:06:39.053Z,20.90
2018-12-12T04:09:05.786Z,19.35
2018-12-12T04:11:32.164Z,22.55
2018-12-12T04:13:58.550Z,17.05
2018-12-12T04:16:25.284Z,22.95
2018-12-12T04:18:52.025Z,22.05
2018-12-12T04:21:18.415Z,22.58
2018-12-12T04:23:44.816Z,21.12
2018-12-12T04:26:11.175Z,21.85
2018-12-12T04:28:37.573Z,24.60
2018-12-12T04:31:03.939Z,23.95
2018-12-12T04:33:30.342Z,25.48
2018-12-12T04:35:56.698Z,19.70
2018-12-12T04:38:30.057Z,20.80
2018-12-12T04:40:56.445Z,24.32
2018-12-12T04:43:22.827Z,21.62
2018-12-12T04:45:49.216Z,24.60
2018-12-12T04:48:15.614Z,26.60
2018-12-12T04:50:42.004Z,18.70
2018-12-12T04:53:08.371Z,19.45
2018-12-12T04:55:34.880Z,17.80
2018-12-12T04:58:01.249Z,17.80
2018-12-12T05:00:34.566Z,19.67
2018-12-12T05:03:00.985Z,21.60
2018-12-12T05:05:27.381Z,21.35
2018-12-12T05:07:53.739Z,18.27
2018-12-12T05:10:20.122Z,19.67
2018-12-12T05:12:46.503Z,17.95
2018-12-12T05:15:12.883Z,22.15
2018-12-12T05:17:39.241Z,18.45
2018-12-12T05:20:05.643Z,19.35
2018-12-12T05:22:32.021Z,17.57
2018-12-12T05:24:58.383Z,17.48
2018-12-12T05:27:24.799Z,19.57
2018-12-12T05:29:51.279Z,18.17
2018-12-12T05:32:17.675Z,18.77
2018-12-12T05:34:44.056Z,16.40
2018-12-12T05:37:10.463Z,22.15
2018-12-12T05:39:36.863Z,25.12
2018-12-12T05:42:03.268Z,20.45
2018-12-12T05:44:29.612Z,18.32
2018-12-12T05:46:56.019Z,20.57
2018-12-12T05:49:22.376Z,21.52
2018-12-12T05:51:48.912Z,32.28
2018-12-12T05:54:15.291Z,27.22
2018-12-12T05:56:41.734Z,22.25
2018-12-12T05:59:08.179Z,28.00
2018-12-12T06:01:34.619Z,23.40
2018-12-12T06:04:01.151Z,23.98
2018-12-12T06:06:27.516Z,21.97
2018-12-12T06:08:53.905Z,23.38
2018-12-12T06:11:20.275Z,24.85
2018-12-12T06:13:46.659Z,23.60
2018-12-12T06:16:19.902Z,20.55
2018-12-12T06:18:46.303Z,27.85
2018-12-12T06:21:12.672Z,24.40
2018-12-12T06:23:39.060Z,28.35
2018-12-12T06:26:05.433Z,23.00
2018-12-12T06:28:31.836Z,21.40
2018-12-12T06:30:58.239Z,26.00
2018-12-12T06:33:24.622Z,17.90
2018-12-12T06:35:50.991Z,22.93
2018-12-12T06:38:17.490Z,21.48
2018-12-12T06:40:43.975Z,37.50
2018-12-12T06:43:11.284Z,30.52
2018-12-12T06:45:37.679Z,22.65
2018-12-12T06:48:04.095Z,19.73
2018-12-12T06:50:30.505Z,18.65
2018-12-12T06:53:03.911Z,23.22
2018-12-12T06:55:30.306Z,21.23
2018-12-12T06:57:56.729Z,23.12
2018-12-12T07:00:23.130Z,25.20
2018-12-12T07:02:49.649Z,22.95
2018-12-12T07:05:16.027Z,23.27
2018-12-12T07:07:42.542Z,22.58
2018-12-12T07:10:08.907Z,21.45
2018-12-12T07:12:35.308Z,26.15
2018-12-12T07:15:01.778Z,18.60
2018-12-12T07:17:35.204Z,18.48
2018-12-12T07:20:02.072Z,22.20
2018-12-12T07:22:28.447Z,23.98
2018-12-12T07:24:54.823Z,18.35
2018-12-12T07:27:21.223Z,22.07
2018-12-12T07:29:47.623Z,24.75
2018-12-12T07:32:14.002Z,19.20
2018-12-12T07:34:47.329Z,20.82
2018-12-12T07:37:13.703Z,17.65
2018-12-12T07:39:40.107Z,21.87
2018-12-12T07:42:06.507Z,19.35
2018-12-12T07:44:32.942Z,24.27
2018-12-12T07:46:59.500Z,16.40
2018-12-12T07:49:26.036Z,25.17
2018-12-12T07:51:52.407Z,23.12
2018-12-12T07:54:18.907Z,16.05
2018-12-12T07:56:45.395Z,14.83
2018-12-12T07:59:11.888Z,24.37
2018-12-12T08:01:38.254Z,18.80
2018-12-12T08:04:04.634Z,19.42
2018-12-12T08:06:37.934Z,21.80
2018-12-12T08:09:05.583Z,23.60
2018-12-12T08:11:31.969Z,20.75
2018-12-12T08:13:58.352Z,16.93
2018-12-12T08:16:24.920Z,18.85
2018-12-12T08:18:51.554Z,17.52
2018-12-12T08:21:17.927Z,21.35
2018-12-12T08:23:44.343Z,17.40
2018-12-12T08:26:10.742Z,22.73
2018-12-12T08:28:37.159Z,21.30
2018-12-12T08:31:03.559Z,25.35
2018-12-12T08:33:29.967Z,17.07
2018-12-12T08:35:56.345Z,21.17
2018-12-12T08:38:22.751Z,20.52
2018-12-12T08:40:49.119Z,21.30
2018-12-12T08:43:15.512Z,21.75
2018-12-12T08:45:41.903Z,20.82
2018-12-12T08:48:08.316Z,24.23
2018-12-12T08:50:34.743Z,22.00
2018-12-12T08:53:01.135Z,28.60
2018-12-12T08:55:27.561Z,23.20
2018-12-12T08:57:53.935Z,21.40
2018-12-12T09:00:20.376Z,22.62
2018-12-12T09:02:46.775Z,20.20
2018-12-12T09:05:13.172Z,19.20
2018-12-12T09:07:39.582Z,28.57
2018-12-12T09:10:06.176Z,24.25
2018-12-12T09:12:39.570Z,22.58
2018-12-12T09:15:06.438Z,24.27
2018-12-12T09:17:32.839Z,23.20
2018-12-12T09:19:59.380Z,21.97
2018-12-12T09:22:25.927Z,25.72
2018-12-12T09:24:52.294Z,21.95
2018-12-12T09:27:18.696Z,22.70
2018-12-12T09:29:45.062Z,28.85
2018-12-12T09:32:11.470Z,24.85
2018-12-12T09:34:37.839Z,24.15
2018-12-12T09:37:04.228Z,28.42
2018-12-12T09:39:30.596Z,29.48
2018-12-12T09:41:56.987Z,37.15
2018-12-12T09:44:23.427Z,23.10
2018-12-12T09:46:49.866Z,25.72
2018-12-12T09:49:16.284Z,26.23
2018-12-12T09:51:42.647Z,23.22
2018-12-12T09:54:09.030Z,27.60
2018-12-12T09:56:35.394Z,23.42
2018-12-12T09:59:01.825Z,20.55
2018-12-12T10:01:28.219Z,25.27
2018-12-12T10:03:54.637Z,22.55
2018-12-12T10:06:21.054Z,23.73
2018-12-12T10:08:47.453Z,21.70
2018-12-12T10:11:13.868Z,23.85
2018-12-12T10:13:40.285Z,19.75
2018-12-12T10:16:06.704Z,27.60
2018-12-12T10:18:33.085Z,23.55
2018-12-12T10:20:59.513Z,18.17
2018-12-12T10:23:26.027Z,16.40
2018-12-12T10:25:52.426Z,20.45
2018-12-12T10:28:18.810Z,14.90
2018-12-12T10:30:45.210Z,18.15
2018-12-12T10:33:11.587Z,17.05
2018-12-12T10:35:37.979Z,16.45
2018-12-12T10:38:04.348Z,17.57
2018-12-12T10:40:30.715Z,22.32
2018-12-12T10:42:57.101Z,19.32
2018-12-12T10:45:23.488Z,17.07
2018-12-12T10:47:49.888Z,19.48
2018-12-12T10:50:16.258Z,15.70
2018-12-12T10:52:42.649Z,17.92
2018-12-12T10:55:09.211Z,12.05
2018-12-12T10:57:42.771Z,11.00
2018-12-12T11:00:12.584Z,15.60
2018-12-12T11:02:40.028Z,18.02
2018-12-12T11:05:06.835Z,16.82
2018-12-12T11:07:33.231Z,13.55
2018-12-12T11:09:59.607Z,15.63
2018-12-12T11:12:26.056Z,18.62
2018-12-12T11:14:52.454Z,12.00
2018-12-12T11:17:18.875Z,19.42
2018-12-12T11:19:45.247Z,13.68
2018-12-12T11:22:11.636Z,15.78
2018-12-12T11:24:38.005Z,13.28
2018-12-12T11:27:04.420Z,12.45
2018-12-12T11:29:30.831Z,10.32
2018-12-12T11:31:57.246Z,11.28
2018-12-12T11:34:28.868Z,6.55
2018-12-12T11:36:56.443Z,5.83
2018-12-12T11:39:23.840Z,6.42
2018-12-12T11:41:52.622Z,5.37
2018-12-12T11:44:19.937Z,3.83
2018-12-12T11:46:46.597Z,4.17
2018-12-12T11:49:13.061Z,3.83
2018-12-12T11:51:39.487Z,4.73
2018-12-12T11:54:05.875Z,4.90
2018-12-12T11:56:32.254Z,4.27
2018-12-12T11:58:58.888Z,5.93
2018-12-12T12:01:25.304Z,2.73
2018-12-12T12:03:56.734Z,3.03
2018-12-12T12:06:20.135Z,4.93
2018-12-12T12:08:46.987Z,3.60
2018-12-12T12:11:17.738Z,3.97
2018-12-12T12:13:44.387Z,4.30
2018-12-12T12:16:10.747Z,2.83
2018-12-12T12:18:37.253Z,3.23
2018-12-12T12:21:03.660Z,3.70
2018-12-12T12:23:30.020Z,4.27
2018-12-12T12:25:56.420Z,4.63
2018-12-12T12:28:22.812Z,4.23
2018-12-12T12:30:49.206Z,4.47
2018-12-12T12:33:15.909Z,5.10
2018-12-12T12:35:42.471Z,4.87
2018-12-12T12:38:09.035Z,6.47
2018-12-12T12:40:35.586Z,4.93
2018-12-12T12:43:02.216Z,5.50
2018-12-12T12:45:29.275Z,4.43
2018-12-12T12:47:56.110Z,10.00
2018-12-12T12:50:22.565Z,31.30
2018-12-12T12:52:49.000Z,22.32
2018-12-12T12:55:15.378Z,16.50
2018-12-12T12:57:41.831Z,14.80
2018-12-12T13:00:08.459Z,11.38
2018-12-12T13:02:34.917Z,23.40
2018-12-12T13:05:01.467Z,12.28
2018-12-12T13:07:27.849Z,11.53
2018-12-12T13:09:59.620Z,15.88
2018-12-12T13:12:26.003Z,11.20
2018-12-12T13:14:52.474Z,6.00
2018-12-12T13:17:18.976Z,7.90
2018-12-12T13:19:46.605Z,9.00
2018-12-12T13:22:13.190Z,5.92
2018-12-12T13:24:39.587Z,5.40
2018-12-12T13:27:06.002Z,5.35
2018-12-12T13:29:32.408Z,5.75
2018-12-12T13:31:58.789Z,7.60
2018-12-12T13:34:25.195Z,4.72
2018-12-12T13:36:51.616Z,5.37
2018-12-12T13:39:18.065Z,4.22
2018-12-12T13:41:44.797Z,10.13
2018-12-12T13:44:11.350Z,6.10
2018-12-12T13:46:37.798Z,5.35
2018-12-12T13:49:04.620Z,5.58
2018-12-12T13:51:32.015Z,4.40
2018-12-12T13:53:58.635Z,4.47
2018-12-12T13:56:25.115Z,4.90
2018-12-12T13:58:51.536Z,4.20
2018-12-12T14:01:17.948Z,4.35
2018-12-12T14:03:44.332Z,6.08
2018-12-12T14:06:10.758Z,5.47
2018-12-12T14:08:37.135Z,4.55
2018-12-12T14:11:03.562Z,5.42
2018-12-12T14:13:29.948Z,5.50
2018-12-12T14:15:56.340Z,4.87
2018-12-12T14:18:22.834Z,4.47
2018-12-12T14:20:49.233Z,4.65
2018-12-12T14:23:15.639Z,4.78
2018-12-12T14:25:42.006Z,7.67
2018-12-12T14:28:15.470Z,7.70
2018-12-12T14:30:41.878Z,4.40
2018-12-12T14:33:08.300Z,6.67
2018-12-12T14:35:34.675Z,4.05
2018-12-12T14:38:01.082Z,4.87
2018-12-12T14:40:27.435Z,4.37
2018-12-12T14:42:53.880Z,4.20
2018-12-12T14:45:20.268Z,5.47
2018-12-12T14:47:46.698Z,4.30
2018-12-12T14:50:13.097Z,4.62
2018-12-12T14:52:39.518Z,4.22
2018-12-12T14:55:05.943Z,13.00
2018-12-12T14:57:32.404Z,4.92
2018-12-12T14:59:58.836Z,5.00
2018-12-12T15:02:25.236Z,4.37
2018-12-12T15:04:51.617Z,5.17
2018-12-12T15:07:17.985Z,5.58
2018-12-12T15:09:44.366Z,7.47
2018-12-12T15:12:10.795Z,5.62
2018-12-12T15:14:37.216Z,5.35
2018-12-12T15:17:03.744Z,5.97
2018-12-12T15:19:30.139Z,5.20
2018-12-12T15:21:56.512Z,4.97
2018-12-12T15:24:22.950Z,5.90
2018-12-12T15:26:49.431Z,5.60
2018-12-12T15:29:22.799Z,9.95
2018-12-12T15:31:49.231Z,7.15
2018-12-12T15:34:15.726Z,7.20
2018-12-12T15:36:42.114Z,5.45
2018-12-12T15:39:08.558Z,9.35
2018-12-12T15:41:35.196Z,6.50
2018-12-12T15:44:01.827Z,6.55
2018-12-12T15:46:35.325Z,7.55
2018-12-12T15:49:01.720Z,7.47
2018-12-12T15:51:28.135Z,6.37
2018-12-12T15:53:54.512Z,5.40
2018-12-12T15:56:20.935Z,8.83
2018-12-12T15:58:47.326Z,6.85
2018-12-12T16:01:13.751Z,8.63
2018-12-12T16:03:40.116Z,8.15
2018-12-12T16:06:06.489Z,6.30
2018-12-12T16:08:32.871Z,6.95
2018-12-12T16:10:59.327Z,11.43
2018-12-12T16:13:25.726Z,6.17
2018-12-12T16:15:52.142Z,7.33
2018-12-12T16:18:18.685Z,11.18
2018-12-12T16:20:45.129Z,9.90
2018-12-12T16:23:11.573Z,5.62
2018-12-12T16:25:37.999Z,6.95
2018-12-12T16:28:04.496Z,9.08
2018-12-12T16:30:31.056Z,7.95
2018-12-12T16:32:57.454Z,8.93
2018-12-12T16:35:23.971Z,9.20
2018-12-12T16:37:50.403Z,9.45
2018-12-12T16:40:16.917Z,8.10
2018-12-12T16:42:50.377Z,9.15
2018-12-12T16:45:16.913Z,7.30
2018-12-12T16:47:43.302Z,10.00
2018-12-12T16:50:09.716Z,7.95
2018-12-12T16:52:36.136Z,7.70
2018-12-12T16:55:02.660Z,8.25
2018-12-12T16:57:29.039Z,8.73
2018-12-12T17:00:04.940Z,7.35
2018-12-12T17:02:31.319Z,8.00
2018-12-12T17:05:02.239Z,10.90
2018-12-12T17:07:26.196Z,12.40
2018-12-12T17:09:52.697Z,10.32
2018-12-12T17:12:19.077Z,11.63
2018-12-12T17:14:45.616Z,8.25
2018-12-12T17:17:12.048Z,9.23
2018-12-12T17:19:38.460Z,9.23
2018-12-12T17:22:04.861Z,10.20
2018-12-12T17:24:31.264Z,7.55
2018-12-12T17:26:57.668Z,13.50
2018-12-12T17:29:24.069Z,10.60
2018-12-12T17:31:50.446Z,8.45
2018-12-12T17:34:16.854Z,10.58
2018-12-12T17:36:43.296Z,8.73
2018-12-12T17:39:09.659Z,7.97
2018-12-12T17:41:36.065Z,23.20
2018-12-12T17:44:02.698Z,18.67
2018-12-12T17:46:36.122Z,12.28
2018-12-12T17:49:02.544Z,10.25
2018-12-12T17:51:28.920Z,15.70
2018-12-12T17:53:55.324Z,18.75
2018-12-12T17:56:21.790Z,12.13
2018-12-12T17:58:48.256Z,11.08
2018-12-12T18:01:14.794Z,11.75
2018-12-12T18:03:41.314Z,11.05
2018-12-12T18:06:07.675Z,8.80
2018-12-12T18:08:34.072Z,9.85
2018-12-12T18:11:00.459Z,9.25
2018-12-12T18:13:26.868Z,10.48
2018-12-12T18:15:53.248Z,10.00
2018-12-12T18:18:19.594Z,10.30
2018-12-12T18:20:46.003Z,8.73
2018-12-12T18:23:12.474Z,8.20
2018-12-12T18:25:38.854Z,9.40
2018-12-12T18:28:05.218Z,9.83
2018-12-12T18:30:31.627Z,8.78
2018-12-12T18:35:54.416Z,8.40
2018-12-12T18:38:20.875Z,11.48
2018-12-12T18:40:47.279Z,9.63
2018-12-12T18:43:13.745Z,11.25
2018-12-12T18:45:40.159Z,14.87
2018-12-12T18:48:06.549Z,9.25
2018-12-12T18:50:32.958Z,10.08
2018-12-12T18:52:59.332Z,9.08
2018-12-12T18:55:25.727Z,10.85
2018-12-12T18:57:52.127Z,9.33
2018-12-12T19:00:18.540Z,10.85
2018-12-12T19:02:44.921Z,10.98
2018-12-12T19:05:11.457Z,15.72
2018-12-12T19:07:37.972Z,14.98
2018-12-12T19:10:05.838Z,10.55
2018-12-12T19:12:32.212Z,21.52
2018-12-12T19:15:01.449Z,13.05
2018-12-12T19:17:34.955Z,10.75
2018-12-12T19:20:01.373Z,8.70
2018-12-12T19:22:27.766Z,9.30
2018-12-12T19:24:54.148Z,13.48
2018-12-12T19:27:20.565Z,7.50
2018-12-12T19:29:47.044Z,9.13
2018-12-12T19:32:20.417Z,12.80
2018-12-12T19:34:49.796Z,9.70
2018-12-12T19:37:15.236Z,12.23
2018-12-12T19:39:41.616Z,7.12
2018-12-12T19:42:08.011Z,19.00
2018-12-12T19:44:34.383Z,16.35
2018-12-12T19:47:00.791Z,38.63
2018-12-12T19:49:27.295Z,15.05
2018-12-12T19:51:53.696Z,6.58
2018-12-12T19:54:20.086Z,13.43
2018-12-12T19:56:46.472Z,6.92
2018-12-12T19:59:12.857Z,8.08
2018-12-12T20:01:39.370Z,6.20
2018-12-12T20:04:05.738Z,7.50
2018-12-12T20:06:32.139Z,8.55
2018-12-12T20:08:58.544Z,6.42
2018-12-12T20:11:25.036Z,8.18
2018-12-12T20:13:51.416Z,6.62
2018-12-12T20:16:17.812Z,6.37
2018-12-12T20:18:44.229Z,9.38
2018-12-12T20:21:10.642Z,6.40
2018-12-12T20:23:37.033Z,10.45
2018-12-12T20:26:03.428Z,8.43
2018-12-12T20:28:29.825Z,8.10
2018-12-12T20:30:56.206Z,7.85
2018-12-12T20:33:29.575Z,10.75
2018-12-12T20:36:02.918Z,7.72
2018-12-12T20:38:29.329Z,8.20
2018-12-12T20:40:55.715Z,17.60
2018-12-12T20:43:22.116Z,9.50
2018-12-12T20:45:48.481Z,12.15
2018-12-12T20:48:14.914Z,8.78
2018-12-12T20:50:41.411Z,8.78
2018-12-12T20:53:07.795Z,8.23
2018-12-12T20:55:34.201Z,7.45
2018-12-12T20:58:00.581Z,8.38
2018-12-12T21:00:26.993Z,8.33
2018-12-12T21:02:53.380Z,10.68
2018-12-12T21:05:19.904Z,7.00
2018-12-12T21:07:46.387Z,7.30
2018-12-12T21:10:12.761Z,7.55
2018-12-12T21:12:39.226Z,11.15
2018-12-12T21:15:07.591Z,9.08
2018-12-12T21:17:34.520Z,8.63
2018-12-12T21:20:01.056Z,10.13
2018-12-12T21:22:27.426Z,9.55
2018-12-12T21:24:53.816Z,10.58
2018-12-12T21:27:20.282Z,9.35
2018-12-12T21:29:46.659Z,8.58
2018-12-12T21:32:13.093Z,11.68
2018-12-12T21:34:39.539Z,8.95
2018-12-12T21:37:06.019Z,10.85
2018-12-12T21:39:32.411Z,10.25
2018-12-12T21:42:06.334Z,8.78
2018-12-12T21:44:32.702Z,15.80
2018-12-12T21:46:59.085Z,17.48
2018-12-12T21:49:25.495Z,15.38
2018-12-12T21:51:51.885Z,16.35
2018-12-12T21:54:18.248Z,9.43
2018-12-12T21:56:44.635Z,9.98
2018-12-12T21:59:11.013Z,10.90
2018-12-12T22:01:37.383Z,8.30
2018-12-12T22:04:03.768Z,8.18
2018-12-12T22:06:30.154Z,7.83
2018-12-12T22:08:56.577Z,8.68
2018-12-12T22:11:22.942Z,6.65
2018-12-12T22:13:49.514Z,10.18
2018-12-12T22:16:15.895Z,9.70
2018-12-12T22:18:42.287Z,10.20
2018-12-12T22:21:08.646Z,8.55
2018-12-12T22:23:35.020Z,6.87
2018-12-12T22:26:01.378Z,9.73
2018-12-12T22:28:27.956Z,7.55
2018-12-12T22:31:01.240Z,7.70
2018-12-12T22:33:27.628Z,10.28
2018-12-12T22:35:53.991Z,10.08
2018-12-12T22:38:20.368Z,8.50
2018-12-12T22:40:46.746Z,9.25
2018-12-12T22:43:13.119Z,7.92
2018-12-12T22:45:39.466Z,7.90
2018-12-12T22:48:06.157Z,7.87
2018-12-12T22:50:32.532Z,9.38
2018-12-12T22:52:58.903Z,7.78
2018-12-12T22:55:25.251Z,7.80
2018-12-12T22:57:51.619Z,9.25
2018-12-12T23:00:24.565Z,7.92
2018-12-12T23:02:50.948Z,9.18
2018-12-12T23:05:17.323Z,7.47
2018-12-12T23:07:43.701Z,6.50
2018-12-12T23:10:10.071Z,8.18
2018-12-12T23:12:36.453Z,7.58
2018-12-12T23:15:03.538Z,9.00
2018-12-12T23:17:29.897Z,8.58
2018-12-12T23:19:56.375Z,10.65
2018-12-12T23:22:22.753Z,7.75
2018-12-12T23:24:49.144Z,9.90
2018-12-12T23:27:15.507Z,10.68
2018-12-12T23:29:41.984Z,10.08
2018-12-12T23:32:08.363Z,9.85
2018-12-12T23:34:34.754Z,12.98
2018-12-12T23:37:01.357Z,11.28
2018-12-12T23:39:27.737Z,8.58
2018-12-12T23:41:54.111Z,10.55
2018-12-12T23:44:20.633Z,9.70
2018-12-12T23:46:47.003Z,8.83
2018-12-12T23:49:13.399Z,8.08
2018-12-12T23:51:39.874Z,8.38
2018-12-12T23:54:06.263Z,10.32
2018-12-12T23:56:32.658Z,15.70
2018-12-12T23:59:05.956Z,8.98
